Time;durP1;ratioP1;P1;durP2;ratioP2;P2;SDS_P1;SDS_P2;PMS_P1;PMS_P2;Temp;Humidity;BMP_temperature;BMP_pressure;BME280_temperature;BME280_humidity;BME280_pressure;Samples;Min_cycle;Max_cycle;Signal;HPM_P1;HPM_P2
2021/06/15 00:01:50;;;;;;;4.17;2.70;;;16.90;99.90;;;;;;5054229;28;20288;-57
2021/06/15 00:04:17;;;;;;;3.37;2.57;;;16.80;99.90;;;;;;5053800;28;20225;-57
2021/06/15 00:06:45;;;;;;;5.40;3.00;;;16.80;99.90;;;;;;5053739;28;20229;-57
2021/06/15 00:09:12;;;;;;;5.97;2.97;;;16.80;99.90;;;;;;5053977;28;20236;-57
2021/06/15 00:11:38;;;;;;;4.00;2.97;;;16.70;99.90;;;;;;5053929;28;20201;-57
2021/06/15 00:14:06;;;;;;;5.07;3.03;;;16.70;99.90;;;;;;5053727;28;20600;-56
2021/06/15 00:16:32;;;;;;;4.53;3.10;;;16.70;99.90;;;;;;5053655;28;20226;-57
2021/06/15 00:18:59;;;;;;;6.77;3.33;;;16.70;99.90;;;;;;5053334;28;20213;-57
2021/06/15 00:21:26;;;;;;;5.43;2.83;;;16.70;99.90;;;;;;5053495;28;20210;-57
2021/06/15 00:23:54;;;;;;;4.60;3.00;;;16.70;99.90;;;;;;5053210;28;20697;-57
2021/06/15 00:26:20;;;;;;;4.03;2.93;;;16.70;99.90;;;;;;5053535;28;20225;-57
2021/06/15 00:28:47;;;;;;;4.40;2.97;;;16.70;99.90;;;;;;5053181;28;20697;-57
2021/06/15 00:31:14;;;;;;;5.87;2.87;;;16.60;99.90;;;;;;5053014;28;20590;-57
2021/06/15 00:33:40;;;;;;;5.33;3.10;;;16.60;99.90;;;;;;5052917;28;20212;-57
2021/06/15 00:36:07;;;;;;;5.33;3.00;;;16.50;99.90;;;;;;5053130;28;20249;-57
2021/06/15 00:38:34;;;;;;;5.70;2.90;;;16.40;99.90;;;;;;5053221;28;20205;-57
2021/06/15 00:41:02;;;;;;;3.63;2.70;;;16.40;99.90;;;;;;5053370;28;20209;-57
2021/06/15 00:43:28;;;;;;;5.93;2.87;;;16.40;99.90;;;;;;5053049;28;20210;-57
2021/06/15 00:45:55;;;;;;;6.10;2.97;;;16.40;99.90;;;;;;5053035;28;20229;-57
2021/06/15 00:48:29;;;;;;;5.13;2.73;;;16.30;99.90;;;;;;5052676;28;20220;-57
2021/06/15 00:50:56;;;;;;;4.63;2.90;;;16.30;99.90;;;;;;5053175;28;20216;-57
2021/06/15 00:53:22;;;;;;;7.07;3.20;;;16.30;99.90;;;;;;5053111;28;20213;-57
2021/06/15 00:55:51;;;;;;;6.63;3.13;;;16.20;99.90;;;;;;5052748;28;20229;-57
2021/06/15 00:58:19;;;;;;;7.27;2.77;;;16.20;99.90;;;;;;5052851;28;20209;-57
2021/06/15 01:00:46;;;;;;;5.33;2.83;;;16.20;99.90;;;;;;5052969;28;20210;-57
2021/06/15 01:03:13;;;;;;;4.73;2.70;;;16.20;99.90;;;;;;5052489;28;20224;-57
2021/06/15 01:05:40;;;;;;;4.53;3.03;;;16.20;99.90;;;;;;5052340;28;20233;-57
2021/06/15 01:08:22;;;;;;;7.03;2.97;;;16.20;99.90;;;;;;5052678;28;20443;-57
2021/06/15 01:10:58;;;;;;;4.73;2.87;;;16.20;99.90;;;;;;5052638;28;20205;-57
2021/06/15 01:13:39;;;;;;;4.27;2.87;;;16.20;99.90;;;;;;5052526;28;20205;-57
2021/06/15 01:16:08;;;;;;;4.50;3.23;;;16.10;99.90;;;;;;5052701;28;20225;-57
2021/06/15 01:18:38;;;;;;;4.97;2.90;;;16.10;99.90;;;;;;5052512;28;20201;-57
2021/06/15 01:21:09;;;;;;;3.70;2.67;;;16.10;99.90;;;;;;5052368;28;20846;-57
2021/06/15 01:24:05;;;;;;;4.37;2.90;;;16.00;99.90;;;;;;5052241;28;20213;-57
2021/06/15 01:27:09;;;;;;;3.20;2.50;;;16.00;99.90;;;;;;5052539;28;20612;-57
2021/06/15 01:29:39;;;;;;;6.60;2.97;;;16.00;99.90;;;;;;5052165;28;20212;-57
2021/06/15 01:32:09;;;;;;;5.57;3.20;;;15.90;99.90;;;;;;5052749;28;20209;-57
2021/06/15 01:34:41;;;;;;;3.80;3.10;;;15.80;99.90;;;;;;5052018;28;20208;-59
2021/06/15 01:37:11;;;;;;;4.50;3.03;;;15.80;99.90;;;;;;5052450;28;20754;-57
2021/06/15 01:39:43;;;;;;;11.40;3.30;;;15.70;99.90;;;;;;5052320;28;20205;-57
2021/06/15 01:42:18;;;;;;;3.63;2.90;;;15.70;99.90;;;;;;5052281;28;20237;-57
2021/06/15 01:44:51;;;;;;;5.17;3.00;;;15.60;99.90;;;;;;5051695;28;20225;-57
2021/06/15 01:47:17;;;;;;;5.30;3.03;;;15.60;99.90;;;;;;5052323;28;20213;-57
2021/06/15 01:49:49;;;;;;;5.43;2.80;;;15.60;99.90;;;;;;5051923;28;20209;-57
2021/06/15 01:52:17;;;;;;;4.27;3.03;;;15.60;99.90;;;;;;5051940;28;20209;-57
2021/06/15 01:54:45;;;;;;;3.90;2.77;;;15.70;99.90;;;;;;5051477;28;20205;-57
2021/06/15 01:57:13;;;;;;;3.43;2.97;;;15.60;99.90;;;;;;5111369;22;20648;-59
2021/06/15 01:59:43;;;;;;;5.23;2.90;;;15.60;99.90;;;;;;5091870;28;20215;-59
2021/06/15 02:02:13;;;;;;;4.83;2.93;;;15.60;99.90;;;;;;5092269;28;20203;-60
2021/06/15 02:04:44;;;;;;;8.67;2.90;;;15.50;99.90;;;;;;5092083;28;20228;-59
2021/06/15 02:07:15;;;;;;;4.17;3.00;;;15.40;99.90;;;;;;5092053;28;20606;-59
2021/06/15 02:09:46;;;;;;;4.40;2.70;;;15.40;99.90;;;;;;5091952;28;20212;-58
2021/06/15 02:12:14;;;;;;;6.47;3.00;;;15.40;99.90;;;;;;5091901;28;20208;-58
2021/06/15 02:14:41;;;;;;;5.67;3.10;;;15.30;99.90;;;;;;5091614;28;20211;-60
2021/06/15 02:17:13;;;;;;;7.40;2.83;;;15.30;99.90;;;;;;5091594;28;20224;-58
2021/06/15 02:19:41;;;;;;;5.70;3.00;;;15.30;99.90;;;;;;5091379;28;20204;-60
2021/06/15 02:22:10;;;;;;;3.33;2.93;;;15.30;99.90;;;;;;5091474;28;20211;-60
2021/06/15 02:24:40;;;;;;;3.57;2.93;;;15.30;99.90;;;;;;5091261;28;20546;-60
2021/06/15 02:27:10;;;;;;;4.60;2.93;;;15.30;99.90;;;;;;5091558;28;20220;-58
2021/06/15 02:29:38;;;;;;;5.80;3.40;;;15.30;99.90;;;;;;5091306;28;20208;-59
2021/06/15 02:32:07;;;;;;;4.40;3.20;;;15.30;99.90;;;;;;5091223;28;20219;-58
2021/06/15 02:34:38;;;;;;;5.63;3.20;;;15.30;99.90;;;;;;5091106;28;20208;-59
2021/06/15 02:37:08;;;;;;;4.33;3.10;;;15.30;99.90;;;;;;5091034;28;20228;-58
2021/06/15 02:39:36;;;;;;;4.47;3.13;;;15.30;99.90;;;;;;5091497;28;20204;-58
2021/06/15 02:42:06;;;;;;;4.13;3.07;;;15.20;99.90;;;;;;5091161;28;20203;-58
2021/06/15 02:44:40;;;;;;;5.47;3.00;;;15.20;99.90;;;;;;5091076;28;20239;-59
2021/06/15 02:47:08;;;;;;;3.27;2.60;;;15.20;99.90;;;;;;5091008;28;20231;-60
2021/06/15 02:49:43;;;;;;;5.57;3.40;;;15.10;99.90;;;;;;5090882;28;20289;-59
2021/06/15 02:52:14;;;;;;;6.93;3.23;;;15.10;99.90;;;;;;5091550;28;20215;-58
2021/06/15 02:54:45;;;;;;;5.63;3.10;;;15.10;99.90;;;;;;5090687;28;20261;-59
2021/06/15 02:57:13;;;;;;;4.80;3.10;;;15.10;99.90;;;;;;5090820;28;20240;-59
2021/06/15 02:59:40;;;;;;;8.40;3.10;;;15.00;99.90;;;;;;5090977;28;20204;-59
2021/06/15 03:02:06;;;;;;;5.80;3.10;;;15.10;99.90;;;;;;5091450;28;20261;-58
2021/06/15 03:04:33;;;;;;;5.67;3.63;;;15.00;99.90;;;;;;5090963;28;20211;-58
2021/06/15 03:07:01;;;;;;;4.13;3.00;;;15.00;99.90;;;;;;5091249;28;20224;-58
2021/06/15 03:09:29;;;;;;;6.00;3.27;;;15.10;99.90;;;;;;5091159;28;20208;-60
2021/06/15 03:12:03;;;;;;;6.13;3.20;;;15.20;99.90;;;;;;5091159;28;20629;-59
2021/06/15 03:14:31;;;;;;;4.70;3.10;;;15.20;99.90;;;;;;5091045;28;20227;-59
2021/06/15 03:17:02;;;;;;;4.00;2.97;;;15.20;99.90;;;;;;5092602;28;20224;-59
2021/06/15 03:19:35;;;;;;;7.07;3.10;;;15.20;99.90;;;;;;5091395;28;20638;-59
2021/06/15 03:22:06;;;;;;;6.17;3.00;;;15.20;99.90;;;;;;5091479;28;20303;-58
2021/06/15 03:24:36;;;;;;;5.80;3.57;;;15.20;99.90;;;;;;5091083;28;20208;-58
2021/06/15 03:27:07;;;;;;;4.73;3.27;;;15.20;99.90;;;;;;5091071;28;20235;-58
2021/06/15 03:29:37;;;;;;;7.07;2.90;;;15.20;99.90;;;;;;5090754;28;20212;-59
2021/06/15 03:32:07;;;;;;;4.87;2.90;;;15.10;99.90;;;;;;5090998;28;20215;-60
2021/06/15 03:34:40;;;;;;;5.77;3.47;;;15.10;99.90;;;;;;5090673;28;20208;-59
2021/06/15 03:37:11;;;;;;;5.80;3.00;;;15.10;99.90;;;;;;5090614;28;20232;-60
2021/06/15 03:39:39;;;;;;;4.47;3.37;;;15.00;99.90;;;;;;5090815;28;20216;-59
2021/06/15 03:42:09;;;;;;;6.37;3.50;;;15.10;99.90;;;;;;5090563;28;20221;-59
2021/06/15 03:44:36;;;;;;;6.87;3.47;;;15.10;99.90;;;;;;5090340;28;20691;-60
2021/06/15 03:47:05;;;;;;;7.67;3.03;;;15.20;99.90;;;;;;5090226;28;20228;-60
2021/06/15 03:49:34;;;;;;;5.57;3.40;;;15.20;99.90;;;;;;5090481;28;20204;-60
2021/06/15 03:52:03;;;;;;;5.07;3.10;;;15.20;99.90;;;;;;5090688;28;20213;-59
2021/06/15 03:54:33;;;;;;;5.07;3.03;;;15.20;99.90;;;;;;5090232;28;20667;-60
2021/06/15 03:57:02;;;;;;;5.30;3.50;;;15.30;99.90;;;;;;5090197;28;20232;-60
2021/06/15 03:59:32;;;;;;;5.77;3.40;;;15.30;99.90;;;;;;5090327;28;20679;-60
2021/06/15 04:02:05;;;;;;;3.73;3.07;;;15.40;99.90;;;;;;5090395;28;20204;-58
2021/06/15 04:04:35;;;;;;;7.47;3.40;;;15.40;99.90;;;;;;5090274;28;20211;-59
2021/06/15 04:07:03;;;;;;;5.57;3.40;;;15.40;99.90;;;;;;5090937;28;20259;-59
2021/06/15 04:09:35;;;;;;;6.80;3.20;;;15.40;99.90;;;;;;5093910;28;20269;-59
2021/06/15 04:12:02;;;;;;;6.20;3.70;;;15.40;99.90;;;;;;5093988;28;20215;-59
2021/06/15 04:14:30;;;;;;;4.17;3.07;;;15.50;99.90;;;;;;5093665;28;20582;-59
2021/06/15 04:16:59;;;;;;;4.50;3.20;;;15.60;99.90;;;;;;5093557;28;20712;-59
2021/06/15 04:19:30;;;;;;;6.63;3.40;;;15.60;99.90;;;;;;5093697;28;20240;-60
2021/06/15 04:22:00;;;;;;;5.43;3.23;;;15.70;99.90;;;;;;5094485;28;20209;-58
2021/06/15 04:24:27;;;;;;;6.83;3.50;;;15.80;99.90;;;;;;5093641;28;20200;-58
2021/06/15 04:26:59;;;;;;;4.97;3.37;;;15.80;99.90;;;;;;5094401;28;20239;-57
2021/06/15 04:29:26;;;;;;;8.50;3.47;;;15.90;99.90;;;;;;5094132;28;20212;-57
2021/06/15 04:31:56;;;;;;;5.73;3.13;;;15.90;99.90;;;;;;5093559;28;20578;-58
2021/06/15 04:34:26;;;;;;;6.07;3.37;;;15.90;99.90;;;;;;5093314;28;20741;-58
2021/06/15 04:36:58;;;;;;;7.43;3.60;;;16.00;99.90;;;;;;5093638;28;20232;-61
2021/06/15 04:39:32;;;;;;;8.63;3.30;;;16.10;99.90;;;;;;5093644;28;20232;-58
2021/06/15 04:42:04;;;;;;;6.43;3.30;;;16.20;99.90;;;;;;5093436;28;20208;-57
2021/06/15 04:44:33;;;;;;;4.60;3.20;;;16.50;99.90;;;;;;5093360;28;20227;-59
2021/06/15 04:47:03;;;;;;;6.17;2.90;;;17.10;99.90;;;;;;5093101;28;20700;-58
2021/06/15 04:49:33;;;;;;;3.95;2.53;;;18.80;99.90;;;;;;5093022;28;20215;-59
2021/06/15 04:52:03;;;;;;;6.88;2.70;;;20.90;99.90;;;;;;5092954;28;20200;-59
2021/06/15 04:54:34;;;;;;;4.53;2.20;;;23.10;99.90;;;;;;5092671;28;20207;-60
2021/06/15 04:57:05;;;;;;;8.25;2.38;;;25.10;98.30;;;;;;5092866;28;20826;-58
2021/06/15 04:59:34;;;;;;;5.25;2.45;;;26.80;93.30;;;;;;5092899;28;20205;-59
2021/06/15 05:02:01;;;;;;;4.97;2.17;;;28.20;87.20;;;;;;5092582;28;20680;-59
2021/06/15 05:04:28;;;;;;;5.70;2.33;;;29.20;79.50;;;;;;5092724;28;20200;-60
2021/06/15 05:06:55;;;;;;;5.88;2.50;;;30.00;74.20;;;;;;5092568;28;20231;-57
2021/06/15 05:09:25;;;;;;;6.15;2.45;;;30.70;69.60;;;;;;5092611;28;20227;-56
2021/06/15 05:11:54;;;;;;;6.15;4.28;;;31.60;65.00;;;;;;5092856;28;20231;-58
2021/06/15 05:14:24;;;;;;;4.93;2.35;;;32.00;61.90;;;;;;5092370;28;20201;-59
2021/06/15 05:16:53;;;;;;;4.32;2.53;;;32.20;59.70;;;;;;5092175;28;20220;-59
2021/06/15 05:19:20;;;;;;;5.78;2.58;;;32.60;58.60;;;;;;5092129;28;20208;-57
2021/06/15 05:21:53;;;;;;;3.90;2.30;;;33.20;56.50;;;;;;5092735;28;20212;-59
2021/06/15 05:24:30;;;;;;;4.65;2.30;;;33.90;54.50;;;;;;5092329;28;20215;-60
2021/06/15 05:26:57;;;;;;;4.72;2.15;;;34.60;52.80;;;;;;5092132;28;20236;-58
2021/06/15 05:29:25;;;;;;;5.40;2.13;;;35.30;50.60;;;;;;5092151;28;20204;-59
2021/06/15 05:31:52;;;;;;;5.30;2.20;;;36.10;49.20;;;;;;5092104;28;20208;-59
2021/06/15 05:34:19;;;;;;;4.38;2.28;;;36.90;47.60;;;;;;5092394;28;20207;-57
2021/06/15 05:36:46;;;;;;;5.22;2.10;;;37.50;45.60;;;;;;5092323;28;20227;-57
2021/06/15 05:39:12;;;;;;;4.10;2.28;;;38.10;44.90;;;;;;5092051;28;20670;-58
2021/06/15 05:41:39;;;;;;;3.95;2.20;;;38.70;43.70;;;;;;5092632;28;20204;-57
2021/06/15 05:44:06;;;;;;;6.35;2.20;;;39.20;42.40;;;;;;5091918;28;20233;-58
2021/06/15 05:46:34;;;;;;;4.43;2.15;;;39.40;41.00;;;;;;5091784;28;20237;-58
2021/06/15 05:49:00;;;;;;;4.07;2.03;;;39.60;40.90;;;;;;5092101;28;20215;-58
2021/06/15 05:51:27;;;;;;;2.80;2.00;;;39.90;39.90;;;;;;5092285;28;20211;-58
2021/06/15 05:53:55;;;;;;;4.47;1.95;;;40.10;39.50;;;;;;5092052;28;20699;-57
2021/06/15 05:56:22;;;;;;;4.32;2.30;;;40.60;39.70;;;;;;5092190;28;20234;-57
2021/06/15 05:58:48;;;;;;;3.25;2.13;;;40.90;38.70;;;;;;5091784;28;20207;-58
2021/06/15 06:01:15;;;;;;;4.78;2.05;;;41.20;38.20;;;;;;5091696;28;20662;-58
2021/06/15 06:03:47;;;;;;;3.65;2.20;;;41.60;36.90;;;;;;5091318;28;20605;-58
2021/06/15 06:08:58;;;;;;;5.28;2.25;;;42.00;36.90;;;;;;5091429;28;20321;-65
2021/06/15 06:11:24;;;;;;;4.28;2.17;;;42.80;35.50;;;;;;5091463;28;20269;-60
2021/06/15 06:13:53;;;;;;;3.38;1.90;;;42.90;34.90;;;;;;5091182;28;20208;-60
2021/06/15 06:16:20;;;;;;;7.72;3.05;;;42.80;34.60;;;;;;5091642;28;20226;-62
2021/06/15 06:18:48;;;;;;;6.35;3.67;;;42.60;34.60;;;;;;5091351;28;20204;-62
2021/06/15 06:21:15;;;;;;;5.07;2.60;;;42.70;34.70;;;;;;5091566;28;20208;-62
2021/06/15 06:23:42;;;;;;;4.05;2.03;;;42.90;34.10;;;;;;5091180;28;20212;-61
2021/06/15 06:26:08;;;;;;;2.50;1.98;;;43.20;33.50;;;;;;5091145;28;20228;-62
2021/06/15 06:28:35;;;;;;;4.30;2.22;;;43.40;33.00;;;;;;5091349;28;20207;-62
2021/06/15 06:31:02;;;;;;;3.35;2.00;;;43.40;32.40;;;;;;5090344;28;20688;-62
2021/06/15 06:33:28;;;;;;;3.05;1.73;;;43.50;32.00;;;;;;5091251;28;20677;-61
2021/06/15 06:35:56;;;;;;;5.13;2.00;;;43.60;31.40;;;;;;5091038;28;20235;-61
2021/06/15 06:38:23;;;;;;;7.03;2.28;;;43.40;31.20;;;;;;5091033;28;20215;-60
2021/06/15 06:40:50;;;;;;;3.25;2.08;;;43.20;31.70;;;;;;5091351;28;20223;-61
2021/06/15 06:43:17;;;;;;;5.85;1.77;;;43.40;31.10;;;;;;5091188;28;20295;-61
2021/06/15 06:45:44;;;;;;;3.55;1.85;;;43.30;31.20;;;;;;5090995;28;20595;-60
2021/06/15 06:48:11;;;;;;;5.90;3.58;;;43.50;31.30;;;;;;5091213;28;20569;-61
2021/06/15 06:50:38;;;;;;;5.50;2.40;;;44.00;31.80;;;;;;5091220;28;20226;-60
2021/06/15 06:53:06;;;;;;;8.55;2.40;;;44.40;30.70;;;;;;5091036;28;20207;-61
2021/06/15 06:55:33;;;;;;;5.47;2.13;;;44.50;30.80;;;;;;5091018;28;20730;-61
2021/06/15 06:58:01;;;;;;;4.65;1.90;;;44.70;30.70;;;;;;5090952;28;20712;-61
2021/06/15 07:00:28;;;;;;;4.90;2.13;;;44.80;30.50;;;;;;5090948;28;20203;-61
2021/06/15 07:02:54;;;;;;;8.00;2.17;;;44.60;30.10;;;;;;5090839;28;20651;-61
2021/06/15 07:05:21;;;;;;;6.50;2.20;;;44.50;30.50;;;;;;5090800;28;20640;-61
2021/06/15 07:07:48;;;;;;;5.28;2.00;;;44.30;30.50;;;;;;5091007;28;20233;-61
2021/06/15 07:10:17;;;;;;;3.58;2.10;;;44.30;30.40;;;;;;5091136;28;20249;-60
2021/06/15 07:12:43;;;;;;;4.38;2.10;;;44.70;30.40;;;;;;5090966;28;20207;-60
2021/06/15 07:15:11;;;;;;;3.80;2.03;;;44.60;30.60;;;;;;5090627;28;20203;-62
2021/06/15 07:17:38;;;;;;;4.32;2.00;;;43.20;32.00;;;;;;5090947;28;20204;-61
2021/06/15 07:20:06;;;;;;;2.70;1.67;;;42.70;32.90;;;;;;5090463;28;20671;-61
2021/06/15 07:22:33;;;;;;;4.68;1.90;;;43.20;32.00;;;;;;5090842;28;20215;-61
2021/06/15 07:25:00;;;;;;;2.80;1.90;;;43.80;30.80;;;;;;5090634;28;20204;-60
2021/06/15 07:27:28;;;;;;;3.53;1.95;;;44.40;31.10;;;;;;5090473;28;20231;-61
2021/06/15 07:29:55;;;;;;;4.25;2.20;;;44.80;30.50;;;;;;5090486;28;20203;-60
2021/06/15 07:32:22;;;;;;;5.32;1.73;;;44.70;30.60;;;;;;5090590;28;20207;-60
2021/06/15 07:34:49;;;;;;;3.85;2.05;;;42.60;32.00;;;;;;5090368;28;20203;-62
2021/06/15 07:37:15;;;;;;;2.75;2.30;;;40.60;34.00;;;;;;5090615;28;20227;-57
2021/06/15 07:39:42;;;;;;;5.10;2.20;;;40.10;35.00;;;;;;5090482;28;20208;-56
2021/06/15 07:42:09;;;;;;;7.68;2.17;;;40.40;34.40;;;;;;5093070;28;20203;-58
2021/06/15 07:44:37;;;;;;;3.33;2.08;;;41.10;33.80;;;;;;5094128;28;20641;-58
2021/06/15 07:47:04;;;;;;;2.42;2.17;;;42.40;32.80;;;;;;5094188;28;20250;-58
2021/06/15 07:49:31;;;;;;;4.40;2.28;;;43.10;32.30;;;;;;5094337;28;20203;-58
2021/06/15 07:51:57;;;;;;;3.45;1.90;;;42.50;32.80;;;;;;5094639;28;20710;-57
2021/06/15 07:54:24;;;;;;;5.75;1.92;;;42.30;32.70;;;;;;5094254;28;20210;-59
2021/06/15 07:56:51;;;;;;;2.92;1.92;;;42.60;32.40;;;;;;5115514;22;20598;-59
2021/06/15 07:59:18;;;;;;;3.75;1.83;;;43.10;31.00;;;;;;5094080;28;20205;-58
2021/06/15 08:01:46;;;;;;;8.25;2.38;;;43.20;31.10;;;;;;5094206;28;20200;-58
2021/06/15 08:04:15;;;;;;;6.57;2.15;;;43.30;30.80;;;;;;5093843;28;20200;-57
2021/06/15 08:06:42;;;;;;;3.42;1.75;;;42.90;30.90;;;;;;5093858;28;20224;-58
2021/06/15 08:09:08;;;;;;;3.78;1.60;;;42.30;30.80;;;;;;5093864;28;20212;-58
2021/06/15 08:11:35;;;;;;;4.30;1.70;;;41.80;30.30;;;;;;5093521;28;20675;-58
2021/06/15 08:14:02;;;;;;;2.45;1.92;;;41.70;29.80;;;;;;5093589;28;20704;-59
2021/06/15 08:16:28;;;;;;;2.25;1.38;;;42.60;29.20;;;;;;5093765;28;20224;-59
2021/06/15 08:18:57;;;;;;;3.33;1.52;;;43.40;28.90;;;;;;5093850;28;20210;-59
2021/06/15 08:21:23;;;;;;;7.78;2.17;;;43.40;29.00;;;;;;5093906;28;20207;-59
2021/06/15 08:23:50;;;;;;;3.45;1.60;;;43.80;29.10;;;;;;5093743;28;20204;-59
2021/06/15 08:26:17;;;;;;;3.65;1.63;;;44.40;28.50;;;;;;5093833;28;20578;-60
2021/06/15 08:28:43;;;;;;;4.18;1.90;;;44.20;28.50;;;;;;5093888;28;20241;-59
2021/06/15 08:31:10;;;;;;;5.13;1.90;;;43.90;29.30;;;;;;5093765;28;20203;-60
2021/06/15 08:33:37;;;;;;;6.03;2.40;;;44.30;29.60;;;;;;5093903;28;20231;-59
2021/06/15 08:36:06;;;;;;;4.13;2.30;;;44.10;30.00;;;;;;5093744;28;20227;-59
2021/06/15 08:38:32;;;;;;;7.15;2.10;;;43.60;30.30;;;;;;5093469;28;20199;-58
2021/06/15 08:40:59;;;;;;;4.35;1.90;;;43.60;30.30;;;;;;5093530;28;20208;-58
2021/06/15 08:43:26;;;;;;;4.25;2.05;;;43.10;31.10;;;;;;5093181;28;20208;-58
2021/06/15 08:45:53;;;;;;;4.15;2.00;;;42.30;30.90;;;;;;5093357;28;20250;-58
2021/06/15 08:48:21;;;;;;;2.38;1.70;;;41.70;31.20;;;;;;5092809;28;20228;-58
2021/06/15 08:50:48;;;;;;;4.15;2.10;;;41.20;31.60;;;;;;5093267;28;20200;-57
2021/06/15 08:53:16;;;;;;;4.72;2.60;;;40.30;32.50;;;;;;5092681;28;20215;-58
2021/06/15 08:55:49;;;;;;;5.50;2.40;;;39.10;33.80;;;;;;5092679;28;20231;-58
2021/06/15 08:58:27;;;;;;;4.57;2.35;;;37.50;35.60;;;;;;5092842;28;20201;-58
2021/06/15 09:00:54;;;;;;;3.90;2.10;;;36.20;35.50;;;;;;5092974;28;20212;-57
2021/06/15 09:03:20;;;;;;;6.82;2.83;;;35.20;37.20;;;;;;5092833;28;20200;-57
2021/06/15 09:05:47;;;;;;;5.15;2.20;;;34.20;39.50;;;;;;5092487;28;20233;-57
2021/06/15 09:08:15;;;;;;;8.43;2.55;;;33.30;41.10;;;;;;5092454;28;20734;-57
2021/06/15 09:10:45;;;;;;;4.35;2.30;;;32.70;42.30;;;;;;5092570;28;20230;-58
2021/06/15 09:13:37;;;;;;;3.40;2.20;;;32.20;42.70;;;;;;5093083;28;20208;-58
2021/06/15 09:16:20;;;;;;;4.25;2.20;;;31.70;43.20;;;;;;5093103;28;20239;-57
2021/06/15 09:18:48;;;;;;;4.95;2.45;;;31.10;44.40;;;;;;5092091;28;20205;-57
2021/06/15 09:21:41;;;;;;;4.93;2.30;;;30.90;44.70;;;;;;5092324;28;20908;-58
2021/06/15 09:24:12;;;;;;;9.43;2.40;;;30.60;45.10;;;;;;5092354;28;20228;-57
2021/06/15 09:27:00;;;;;;;4.80;2.17;;;30.30;45.20;;;;;;5092241;28;20602;-57
2021/06/15 09:29:42;;;;;;;7.75;2.80;;;30.10;46.00;;;;;;5092208;28;20200;-57
2021/06/15 09:32:11;;;;;;;7.30;2.13;;;30.10;46.40;;;;;;5092836;28;20208;-57
2021/06/15 09:34:45;;;;;;;4.22;2.13;;;30.00;45.70;;;;;;5092525;28;20200;-58
2021/06/15 09:37:12;;;;;;;5.88;2.22;;;30.00;46.40;;;;;;5092150;28;20223;-58
2021/06/15 09:39:40;;;;;;;5.60;2.30;;;30.00;46.50;;;;;;5092170;28;20232;-58
2021/06/15 09:42:11;;;;;;;4.38;2.13;;;30.00;46.90;;;;;;5092293;28;20216;-58
2021/06/15 09:44:37;;;;;;;3.95;2.10;;;30.00;46.10;;;;;;5092242;28;20690;-57
2021/06/15 09:47:08;;;;;;;4.05;1.85;;;30.00;46.70;;;;;;5092056;28;20243;-58
2021/06/15 09:49:36;;;;;;;5.05;2.50;;;30.10;45.60;;;;;;5092165;28;20215;-57
2021/06/15 09:52:18;;;;;;;4.20;2.45;;;30.20;46.40;;;;;;5092089;28;20204;-58
2021/06/15 09:54:48;;;;;;;3.88;2.13;;;30.40;46.50;;;;;;5092055;28;20208;-58
2021/06/15 09:57:21;;;;;;;3.40;1.80;;;30.60;46.40;;;;;;5091855;28;20584;-58
2021/06/15 10:00:11;;;;;;;5.38;2.25;;;30.70;46.00;;;;;;5091714;28;20732;-59
2021/06/15 10:02:50;;;;;;;3.80;2.20;;;30.70;46.00;;;;;;5084808;28;20572;-58
2021/06/15 10:05:28;;;;;;;4.13;2.30;;;30.80;45.30;;;;;;5090715;28;20231;-57
2021/06/15 10:07:58;;;;;;;7.70;2.50;;;30.70;45.20;;;;;;5091369;28;20259;-58
2021/06/15 10:10:29;;;;;;;7.03;2.45;;;30.70;45.30;;;;;;5091596;28;20211;-59
2021/06/15 10:12:56;;;;;;;8.00;2.10;;;30.90;45.00;;;;;;5091387;28;20204;-58
2021/06/15 10:15:26;;;;;;;4.93;2.35;;;31.00;45.10;;;;;;5091451;28;20200;-58
2021/06/15 10:17:53;;;;;;;5.03;2.03;;;31.10;45.10;;;;;;5091278;28;20629;-59
2021/06/15 10:20:21;;;;;;;4.38;2.25;;;30.80;44.90;;;;;;5091251;28;20212;-59
2021/06/15 10:22:49;;;;;;;3.28;2.08;;;31.20;44.80;;;;;;5091796;28;20204;-59
2021/06/15 10:25:17;;;;;;;3.95;2.40;;;31.30;45.30;;;;;;5091118;28;20212;-58
2021/06/15 10:27:46;;;;;;;5.22;2.10;;;31.30;45.30;;;;;;5090929;28;20228;-58
2021/06/15 10:30:15;;;;;;;5.20;2.50;;;31.30;45.30;;;;;;5091381;28;20204;-57
2021/06/15 10:32:53;;;;;;;4.00;2.30;;;31.10;45.50;;;;;;5091189;28;20208;-58
2021/06/15 10:35:37;;;;;;;4.15;1.98;;;31.00;46.20;;;;;;5091089;28;20231;-57
2021/06/15 10:38:05;;;;;;;4.43;2.20;;;30.80;46.10;;;;;;5091549;28;20196;-57
2021/06/15 10:40:57;;;;;;;4.25;1.77;;;30.80;46.40;;;;;;5091357;28;20208;-57
2021/06/15 10:43:28;;;;;;;3.55;2.08;;;30.70;45.80;;;;;;5091179;28;20311;-57
2021/06/15 10:45:59;;;;;;;2.50;1.98;;;30.80;46.50;;;;;;5091347;28;20239;-58
2021/06/15 10:48:39;;;;;;;4.50;2.28;;;30.90;46.10;;;;;;5090616;28;20224;-58
2021/06/15 10:51:22;;;;;;;5.70;2.38;;;31.20;46.20;;;;;;5091148;28;20603;-57
2021/06/15 10:53:49;;;;;;;3.95;2.17;;;31.10;45.70;;;;;;5091192;28;20204;-57
2021/06/15 10:56:17;;;;;;;4.35;2.30;;;31.10;46.10;;;;;;5090883;28;20243;-57
2021/06/15 10:59:03;;;;;;;3.95;2.60;;;31.20;45.50;;;;;;5091231;28;20215;-58
2021/06/15 11:01:32;;;;;;;4.57;3.33;;;31.20;46.80;;;;;;5091057;28;20203;-58
2021/06/15 11:03:59;;;;;;;5.07;2.55;;;31.20;46.10;;;;;;5090929;28;20660;-58
2021/06/15 11:06:53;;;;;;;4.60;2.25;;;31.10;46.20;;;;;;5090950;28;20585;-58
2021/06/15 11:09:24;;;;;;;3.83;2.20;;;31.00;46.20;;;;;;5032387;28;20223;-58
2021/06/15 11:12:18;;;;;;;4.55;2.28;;;31.00;46.40;;;;;;5091502;28;20242;-58
2021/06/15 11:15:18;;;;;;;3.38;2.33;;;31.10;47.30;;;;;;5091904;28;20323;-57
2021/06/15 11:17:52;;;;;;;5.55;2.20;;;31.20;47.30;;;;;;5097025;28;20317;-57
2021/06/15 11:20:39;;;;;;;6.72;2.33;;;31.20;47.30;;;;;;5097379;28;20211;-57
2021/06/15 11:23:25;;;;;;;6.82;2.50;;;31.10;47.30;;;;;;5096606;28;20204;-58
2021/06/15 11:25:59;;;;;;;3.30;2.22;;;31.10;47.50;;;;;;5095095;28;20242;-58
2021/06/15 11:28:40;;;;;;;3.55;2.42;;;31.10;47.40;;;;;;5094476;28;20707;-59
2021/06/15 11:31:29;;;;;;;5.00;2.35;;;31.10;47.80;;;;;;5094786;28;20208;-58
2021/06/15 11:34:15;;;;;;;4.72;2.10;;;30.90;48.20;;;;;;5094641;28;20211;-58
2021/06/15 11:36:45;;;;;;;2.88;2.00;;;31.00;48.50;;;;;;5095007;28;20228;-58
2021/06/15 11:39:32;;;;;;;4.75;2.40;;;31.00;47.20;;;;;;5094680;28;20204;-58
2021/06/15 11:42:23;;;;;;;6.63;2.15;;;30.90;46.70;;;;;;5094607;28;20211;-58
2021/06/15 11:44:56;;;;;;;5.32;2.10;;;31.10;47.60;;;;;;5094956;28;20742;-58
2021/06/15 11:47:29;;;;;;;4.07;2.08;;;30.60;46.40;;;;;;5095660;28;20232;-58
2021/06/15 11:50:25;;;;;;;8.07;2.42;;;30.60;47.00;;;;;;5095219;28;20216;-58
2021/06/15 11:52:58;;;;;;;4.35;2.30;;;30.60;46.70;;;;;;5092354;28;20208;-58
2021/06/15 11:55:28;;;;;;;4.95;2.53;;;30.70;46.00;;;;;;5094284;28;20304;-58
2021/06/15 11:58:03;;;;;;;4.75;1.90;;;30.80;44.50;;;;;;5094381;28;20273;-58
2021/06/15 12:00:32;;;;;;;4.38;2.08;;;30.90;44.30;;;;;;5094560;28;20210;-58
2021/06/15 12:03:04;;;;;;;6.18;2.70;;;30.90;45.30;;;;;;5094462;28;20204;-58
2021/06/15 12:05:32;;;;;;;4.38;2.17;;;31.00;46.20;;;;;;5095254;28;20671;-60
2021/06/15 12:07:59;;;;;;;4.18;1.95;;;31.30;44.50;;;;;;5096382;28;20281;-59
2021/06/15 12:10:27;;;;;;;2.83;1.83;;;31.50;43.90;;;;;;5095815;28;20223;-59
2021/06/15 12:13:00;;;;;;;8.10;2.00;;;31.50;44.70;;;;;;5094395;28;20208;-58
2021/06/15 12:15:29;;;;;;;5.22;2.03;;;31.60;44.80;;;;;;5094927;28;20253;-57
2021/06/15 12:17:55;;;;;;;3.17;1.80;;;31.60;45.30;;;;;;5095226;28;20220;-57
2021/06/15 12:20:27;;;;;;;4.65;1.98;;;31.60;44.30;;;;;;5095150;28;20573;-58
2021/06/15 12:22:56;;;;;;;2.53;1.98;;;31.50;44.30;;;;;;5094862;28;20332;-57
2021/06/15 12:25:30;;;;;;;3.05;1.77;;;31.60;44.20;;;;;;5093690;28;20212;-57
2021/06/15 12:28:19;;;;;;;4.05;1.75;;;31.70;43.70;;;;;;5092509;28;20600;-57
2021/06/15 12:31:01;;;;;;;4.15;2.65;;;31.90;43.80;;;;;;5086470;28;20220;-58
2021/06/15 12:33:28;;;;;;;4.90;2.30;;;32.00;43.60;;;;;;5093795;28;20215;-58
2021/06/15 12:35:58;;;;;;;6.47;3.10;;;32.10;43.50;;;;;;5093553;28;20225;-58
2021/06/15 12:38:26;;;;;;;3.67;1.90;;;32.30;43.70;;;;;;5093616;28;20208;-58
2021/06/15 12:40:54;;;;;;;2.63;1.77;;;32.40;43.30;;;;;;5093496;28;20228;-58
2021/06/15 12:43:24;;;;;;;3.58;2.00;;;32.30;42.60;;;;;;5093827;28;20254;-57
2021/06/15 12:46:05;;;;;;;5.93;2.00;;;32.20;44.10;;;;;;5093231;28;20224;-57
2021/06/15 12:48:32;;;;;;;3.15;1.75;;;32.20;43.70;;;;;;5093006;28;20277;-58
2021/06/15 12:51:07;;;;;;;2.75;1.85;;;32.30;43.10;;;;;;5092953;28;20208;-57
2021/06/15 12:53:37;;;;;;;2.55;1.60;;;32.40;43.00;;;;;;5092853;28;20215;-60
2021/06/15 12:56:18;;;;;;;8.32;1.85;;;32.40;42.00;;;;;;5092928;28;20737;-58
2021/06/15 12:58:45;;;;;;;2.40;1.85;;;32.20;42.20;;;;;;5092715;28;20200;-58
2021/06/15 13:01:13;;;;;;;2.17;1.70;;;32.20;41.90;;;;;;5093201;28;20269;-58
2021/06/15 13:03:42;;;;;;;2.80;1.90;;;32.20;41.10;;;;;;5093010;28;20596;-57
2021/06/15 13:06:11;;;;;;;7.38;1.92;;;32.30;41.00;;;;;;5092528;28;20228;-57
2021/06/15 13:08:39;;;;;;;4.25;1.85;;;32.20;42.00;;;;;;5092937;28;20224;-58